createdAt,value
2024-03-30T00:00:55.596Z,24.78
2024-03-30T00:01:55.701Z,24.74
2024-03-30T00:02:55.599Z,24.74
2024-03-30T00:03:55.648Z,24.77
2024-03-30T00:04:55.612Z,24.73
2024-03-30T00:05:55.616Z,24.78
2024-03-30T00:06:55.625Z,24.73
2024-03-30T00:07:55.631Z,24.74
2024-03-30T00:08:55.705Z,24.80
2024-03-30T00:09:55.694Z,24.78
2024-03-30T00:10:55.688Z,24.71
2024-03-30T00:11:55.757Z,24.77
2024-03-30T00:12:55.761Z,24.74
2024-03-30T00:13:55.774Z,24.81
2024-03-30T00:14:55.802Z,24.77
2024-03-30T00:15:55.843Z,24.78
2024-03-30T00:16:55.888Z,24.77
2024-03-30T00:17:55.902Z,24.77
2024-03-30T00:18:55.974Z,24.78
2024-03-30T00:19:55.922Z,24.78
2024-03-30T00:20:55.923Z,24.77
2024-03-30T00:21:55.974Z,24.84
2024-03-30T00:22:55.988Z,24.74
2024-03-30T00:23:56.009Z,24.81
2024-03-30T00:24:56.138Z,24.76
2024-03-30T00:25:56.073Z,24.79
2024-03-30T00:26:56.121Z,24.78
2024-03-30T00:27:56.076Z,24.77
2024-03-30T00:28:56.124Z,24.85
2024-03-30T00:29:56.128Z,24.81
2024-03-30T00:30:56.198Z,24.84
2024-03-30T00:31:56.171Z,24.82
2024-03-30T00:32:56.197Z,24.77
2024-03-30T00:33:56.210Z,24.79
2024-03-30T00:34:56.221Z,24.82
2024-03-30T00:35:56.234Z,24.84
2024-03-30T00:36:56.259Z,24.79
2024-03-30T00:37:56.245Z,24.77
2024-03-30T00:38:56.256Z,24.88
2024-03-30T00:39:56.269Z,24.81
2024-03-30T00:40:56.271Z,24.81
2024-03-30T00:41:56.270Z,24.81
2024-03-30T00:43:04.129Z,24.82
2024-03-30T00:43:57.311Z,24.79
2024-03-30T00:44:56.305Z,24.75
2024-03-30T00:45:56.308Z,24.78
2024-03-30T00:46:56.277Z,24.81
2024-03-30T00:47:56.338Z,24.85
2024-03-30T00:48:56.428Z,24.81
2024-03-30T00:49:56.295Z,24.79
2024-03-30T00:50:56.328Z,24.78
2024-03-30T00:51:56.350Z,24.81
2024-03-30T00:52:56.292Z,24.83
2024-03-30T00:53:56.427Z,24.84
2024-03-30T00:54:56.312Z,24.83
2024-03-30T00:55:56.413Z,24.85
2024-03-30T00:56:56.270Z,24.81
2024-03-30T00:57:56.288Z,24.81
2024-03-30T00:58:56.295Z,24.82
2024-03-30T00:59:56.295Z,24.78
2024-03-30T01:00:56.294Z,24.85
2024-03-30T01:01:56.302Z,24.85
2024-03-30T01:02:56.316Z,24.78
2024-03-30T01:03:56.323Z,24.85
2024-03-30T01:04:56.301Z,24.86
2024-03-30T01:05:56.329Z,24.82
2024-03-30T01:06:56.286Z,24.85
2024-03-30T01:07:56.308Z,24.82
2024-03-30T01:08:56.391Z,24.83
2024-03-30T01:09:56.356Z,24.82
2024-03-30T01:10:56.326Z,24.85
2024-03-30T01:11:56.331Z,24.79
2024-03-30T01:12:56.347Z,24.82
2024-03-30T01:13:56.326Z,24.82
2024-03-30T01:14:56.337Z,24.79
2024-03-30T01:15:56.353Z,24.80
2024-03-30T01:16:56.310Z,24.83
2024-03-30T01:17:56.313Z,24.82
2024-03-30T01:18:56.320Z,24.81
2024-03-30T01:19:56.319Z,24.80
2024-03-30T01:20:56.886Z,24.83
2024-03-30T01:21:56.337Z,24.85
2024-03-30T01:22:56.333Z,24.81
2024-03-30T01:23:56.323Z,24.75
2024-03-30T01:24:56.332Z,24.88
2024-03-30T01:25:56.345Z,24.83
2024-03-30T01:26:56.325Z,24.83
2024-03-30T01:27:56.322Z,24.82
2024-03-30T01:28:56.334Z,24.83
2024-03-30T01:29:56.314Z,24.82
2024-03-30T01:30:56.356Z,24.84
2024-03-30T01:31:56.387Z,24.80
2024-03-30T01:32:56.365Z,24.82
2024-03-30T01:33:56.372Z,24.86
2024-03-30T01:34:56.384Z,24.83
2024-03-30T01:35:56.360Z,24.86
2024-03-30T01:36:56.378Z,24.85
2024-03-30T01:37:56.353Z,24.83
2024-03-30T01:38:56.350Z,24.84
2024-03-30T01:39:56.374Z,24.83
2024-03-30T01:40:56.353Z,24.83
2024-03-30T01:41:56.364Z,24.77
2024-03-30T01:42:56.375Z,24.80
2024-03-30T01:43:56.346Z,24.79
2024-03-30T01:44:56.385Z,24.86
2024-03-30T01:45:56.350Z,24.82
2024-03-30T01:46:56.431Z,24.78
2024-03-30T01:47:56.384Z,24.80
2024-03-30T01:48:56.371Z,24.83
2024-03-30T01:49:56.447Z,24.80
2024-03-30T01:50:56.403Z,24.83
2024-03-30T01:51:56.546Z,24.88
2024-03-30T01:52:56.424Z,24.83
2024-03-30T01:53:56.401Z,24.84
2024-03-30T01:54:56.367Z,24.78
2024-03-30T01:55:56.367Z,24.83
2024-03-30T01:56:56.367Z,24.87
2024-03-30T01:57:56.384Z,24.84
2024-03-30T01:58:56.438Z,24.86
2024-03-30T01:59:56.391Z,24.84
2024-03-30T02:00:56.373Z,24.83
2024-03-30T02:01:56.478Z,24.88
2024-03-30T02:02:56.425Z,24.88
2024-03-30T02:03:56.410Z,24.81
2024-03-30T02:04:56.394Z,24.84
2024-03-30T02:05:56.412Z,24.87
2024-03-30T02:06:56.447Z,24.84
2024-03-30T02:07:56.419Z,24.83
2024-03-30T02:08:56.433Z,24.83
2024-03-30T02:09:56.405Z,24.84
2024-03-30T02:10:56.419Z,24.87
2024-03-30T02:11:56.418Z,24.87
2024-03-30T02:12:56.382Z,24.83
2024-03-30T02:13:56.410Z,24.86
2024-03-30T02:14:56.452Z,24.84
2024-03-30T02:15:56.411Z,24.88
2024-03-30T02:16:56.425Z,24.85
2024-03-30T02:17:56.443Z,24.90
2024-03-30T02:18:56.418Z,24.81
2024-03-30T02:19:56.449Z,24.83
2024-03-30T02:20:56.426Z,24.84
2024-03-30T02:21:56.419Z,24.80
2024-03-30T02:22:56.452Z,24.84
2024-03-30T02:23:56.459Z,24.91
2024-03-30T02:24:56.485Z,24.85
2024-03-30T02:25:56.468Z,24.91
2024-03-30T02:26:56.466Z,24.85
2024-03-30T02:27:56.432Z,24.85
2024-03-30T02:28:56.488Z,24.85
2024-03-30T02:29:56.447Z,24.84
2024-03-30T02:30:56.420Z,24.82
2024-03-30T02:31:56.453Z,24.87
2024-03-30T02:32:56.422Z,24.80
2024-03-30T02:33:56.429Z,24.83
2024-03-30T02:34:56.477Z,24.85
2024-03-30T02:35:56.563Z,24.88
2024-03-30T02:36:56.449Z,24.83
2024-03-30T02:37:56.442Z,24.85
2024-03-30T02:38:56.496Z,24.84
2024-03-30T02:39:56.458Z,24.87
2024-03-30T02:40:56.459Z,24.87
2024-03-30T02:41:56.472Z,24.82
2024-03-30T02:42:56.428Z,24.88
2024-03-30T02:43:56.488Z,24.85
2024-03-30T02:44:56.544Z,24.84
2024-03-30T02:45:56.553Z,24.89
2024-03-30T02:46:56.599Z,24.88
2024-03-30T02:47:56.619Z,24.85
2024-03-30T02:48:56.664Z,24.85
2024-03-30T02:49:56.709Z,24.88
2024-03-30T02:50:56.746Z,24.91
2024-03-30T02:51:56.825Z,24.89
2024-03-30T02:52:56.977Z,24.88
2024-03-30T02:53:56.874Z,24.88
2024-03-30T02:54:56.877Z,24.84
2024-03-30T02:55:56.974Z,24.87
2024-03-30T02:56:56.992Z,24.87
2024-03-30T02:57:56.990Z,24.85
2024-03-30T02:58:57.099Z,24.87
2024-03-30T02:59:57.099Z,24.91
2024-03-30T03:00:57.127Z,24.87
2024-03-30T03:01:57.489Z,24.85
2024-03-30T03:02:57.202Z,24.85
2024-03-30T03:03:57.240Z,24.89
2024-03-30T03:04:57.276Z,24.91
2024-03-30T03:05:57.352Z,24.86
2024-03-30T03:06:57.360Z,24.86
2024-03-30T03:07:57.418Z,24.84
2024-03-30T03:08:57.467Z,24.88
2024-03-30T03:09:57.478Z,24.91
2024-03-30T03:10:57.532Z,24.84
2024-03-30T03:11:57.546Z,24.84
2024-03-30T03:12:57.598Z,24.88
2024-03-30T03:13:57.734Z,24.85
2024-03-30T03:14:57.791Z,24.88
2024-03-30T03:15:57.758Z,24.86
2024-03-30T03:16:57.784Z,24.84
2024-03-30T03:17:57.811Z,24.86
2024-03-30T03:18:57.927Z,24.89
2024-03-30T03:19:57.919Z,24.89
2024-03-30T03:20:57.976Z,24.86
2024-03-30T03:21:58.040Z,24.88
2024-03-30T03:22:58.093Z,24.92
2024-03-30T03:23:58.099Z,24.88
2024-03-30T03:24:58.142Z,24.85
2024-03-30T03:25:58.191Z,24.89
2024-03-30T03:26:58.227Z,24.89
2024-03-30T03:27:58.321Z,24.87
2024-03-30T03:28:58.325Z,24.89
2024-03-30T03:29:58.344Z,24.90
2024-03-30T03:30:58.448Z,24.88
2024-03-30T03:31:58.447Z,24.90
2024-03-30T03:32:58.512Z,24.89
2024-03-30T03:33:58.568Z,24.87
2024-03-30T03:34:58.632Z,24.92
2024-03-30T03:35:59.502Z,24.87
2024-03-30T03:36:58.688Z,24.85
2024-03-30T03:37:58.697Z,24.89
2024-03-30T03:38:58.822Z,24.87
2024-03-30T03:39:58.815Z,24.89
2024-03-30T03:40:58.855Z,24.86
2024-03-30T03:41:58.949Z,24.89
2024-03-30T03:42:58.961Z,24.83
2024-03-30T03:43:59.014Z,24.89
2024-03-30T03:44:59.047Z,24.89
2024-03-30T03:45:59.090Z,24.85
2024-03-30T03:46:59.162Z,24.86
2024-03-30T03:47:59.210Z,24.85
2024-03-30T03:48:59.258Z,24.86
2024-03-30T03:49:59.301Z,24.87
2024-03-30T03:50:59.356Z,24.87
2024-03-30T03:51:59.407Z,24.90
2024-03-30T03:52:59.435Z,24.89
2024-03-30T03:53:59.517Z,24.90
2024-03-30T03:54:59.548Z,24.86
2024-03-30T03:55:59.594Z,24.90
2024-03-30T03:56:59.673Z,24.90
2024-03-30T03:57:59.688Z,24.94
2024-03-30T03:58:59.763Z,24.84
2024-03-30T03:59:59.820Z,24.86
2024-03-30T04:00:59.874Z,24.87
2024-03-30T04:01:59.918Z,24.90
2024-03-30T04:03:00.046Z,24.93
2024-03-30T04:04:00.100Z,24.86
2024-03-30T04:05:00.030Z,24.90
2024-03-30T04:06:00.124Z,24.92
2024-03-30T04:07:00.157Z,24.91
2024-03-30T04:08:00.187Z,24.92
2024-03-30T04:09:00.234Z,24.87
2024-03-30T04:10:07.549Z,24.88
2024-03-30T04:11:07.567Z,24.97
2024-03-30T04:12:07.550Z,24.93
2024-03-30T04:13:07.568Z,24.90
2024-03-30T04:14:07.567Z,24.90
2024-03-30T04:15:07.608Z,24.87
2024-03-30T04:16:07.594Z,24.86
2024-03-30T04:17:07.561Z,24.87
2024-03-30T04:18:07.589Z,24.93
2024-03-30T04:19:07.572Z,24.90
2024-03-30T04:20:07.608Z,24.89
2024-03-30T04:21:07.591Z,24.90
2024-03-30T04:22:07.594Z,24.86
2024-03-30T04:23:07.584Z,24.89
2024-03-30T04:24:07.659Z,24.90
2024-03-30T04:25:07.668Z,24.87
2024-03-30T04:26:07.572Z,24.86
2024-03-30T04:27:07.560Z,24.87
2024-03-30T04:28:07.574Z,24.89
2024-03-30T04:29:07.569Z,24.87
2024-03-30T04:30:07.610Z,24.88
2024-03-30T04:31:15.384Z,24.94
2024-03-30T04:32:15.244Z,24.93
2024-03-30T04:33:15.249Z,24.91
2024-03-30T04:34:15.250Z,24.88
2024-03-30T04:35:15.261Z,24.93
2024-03-30T04:36:15.309Z,24.88
2024-03-30T04:37:15.280Z,24.93
2024-03-30T04:38:15.238Z,24.94
2024-03-30T04:39:15.290Z,24.86
2024-03-30T04:40:15.251Z,24.94
2024-03-30T04:41:15.258Z,24.84
2024-03-30T04:42:15.249Z,24.88
2024-03-30T04:43:15.328Z,24.91
2024-03-30T04:44:15.290Z,24.86
2024-03-30T04:45:15.273Z,24.89
2024-03-30T04:46:15.274Z,24.90
2024-03-30T04:47:15.305Z,24.97
2024-03-30T04:48:15.248Z,24.94
2024-03-30T04:49:15.312Z,24.91
2024-03-30T04:50:15.270Z,24.91
2024-03-30T04:51:15.367Z,24.88
2024-03-30T04:53:11.251Z,24.92
2024-03-30T04:54:11.191Z,24.93
2024-03-30T04:55:11.201Z,24.92
2024-03-30T04:56:11.207Z,24.88
2024-03-30T04:57:11.214Z,24.94
2024-03-30T04:58:11.181Z,24.94
2024-03-30T04:59:11.232Z,24.90
2024-03-30T05:00:11.345Z,24.93
2024-03-30T05:01:11.901Z,24.92
2024-03-30T05:02:11.218Z,24.91
2024-03-30T05:03:11.214Z,24.88
2024-03-30T05:04:11.188Z,24.88
2024-03-30T05:05:11.206Z,24.91
2024-03-30T05:06:11.232Z,24.92
2024-03-30T05:07:11.211Z,24.94
2024-03-30T05:08:11.232Z,24.89
2024-03-30T05:09:11.220Z,24.88
2024-03-30T05:10:11.231Z,24.89
2024-03-30T05:11:11.297Z,24.94
2024-03-30T05:12:11.221Z,24.94
2024-03-30T05:13:11.219Z,24.94
2024-03-30T05:14:11.217Z,24.88
2024-03-30T05:15:11.227Z,24.89
2024-03-30T05:16:11.242Z,24.94
2024-03-30T05:17:11.236Z,24.89
2024-03-30T05:18:11.191Z,24.91
2024-03-30T05:19:11.198Z,24.95
2024-03-30T05:20:11.210Z,24.91
2024-03-30T05:21:11.203Z,24.87
2024-03-30T05:22:11.291Z,24.89
2024-03-30T05:23:11.221Z,24.87
2024-03-30T05:24:11.227Z,24.89
2024-03-30T05:25:11.339Z,24.94
2024-03-30T05:26:11.375Z,24.88
2024-03-30T05:27:11.443Z,24.89
2024-03-30T05:28:11.490Z,24.89
2024-03-30T05:29:11.555Z,24.93
2024-03-30T05:30:11.677Z,24.92
2024-03-30T05:31:11.756Z,24.89
2024-03-30T05:32:11.754Z,24.90
2024-03-30T05:33:11.805Z,24.86
2024-03-30T05:34:11.836Z,24.91
2024-03-30T05:35:11.917Z,24.81
2024-03-30T05:36:12.004Z,24.87
2024-03-30T05:37:12.032Z,24.83
2024-03-30T05:38:12.115Z,24.84
2024-03-30T05:39:12.148Z,24.85
2024-03-30T05:40:12.229Z,24.86
2024-03-30T05:41:12.280Z,24.81
2024-03-30T05:42:12.382Z,24.80
2024-03-30T05:43:12.392Z,24.82
2024-03-30T05:44:12.459Z,24.77
2024-03-30T05:45:12.489Z,24.82
2024-03-30T05:46:12.536Z,24.79
2024-03-30T05:47:15.547Z,24.82
2024-03-30T05:48:12.614Z,24.80
2024-03-30T05:49:12.630Z,24.75
2024-03-30T05:50:12.606Z,24.73
2024-03-30T05:51:12.611Z,24.73
2024-03-30T05:52:12.679Z,24.73
2024-03-30T05:53:12.617Z,24.76
2024-03-30T05:54:12.649Z,24.75
2024-03-30T05:55:12.636Z,24.74
2024-03-30T05:56:12.607Z,24.69
2024-03-30T05:57:12.616Z,24.71
2024-03-30T05:58:12.624Z,24.72
2024-03-30T05:59:12.678Z,24.67
2024-03-30T06:00:12.631Z,24.73
2024-03-30T06:01:12.615Z,24.67
2024-03-30T06:02:12.619Z,24.66
2024-03-30T06:03:12.732Z,24.68
2024-03-30T06:04:12.620Z,24.62
2024-03-30T06:05:12.631Z,24.67
2024-03-30T06:06:12.636Z,24.66
2024-03-30T06:07:12.612Z,24.62
2024-03-30T06:08:12.622Z,24.63
2024-03-30T06:09:12.643Z,24.65
2024-03-30T06:10:12.634Z,24.58
2024-03-30T06:11:12.652Z,24.58
2024-03-30T06:12:12.605Z,24.55
2024-03-30T06:13:12.627Z,24.55
2024-03-30T06:14:12.689Z,24.57
2024-03-30T06:15:12.659Z,24.54
2024-03-30T06:16:12.614Z,24.54
2024-03-30T06:17:12.606Z,24.57
2024-03-30T06:18:12.616Z,24.53
2024-03-30T06:19:12.621Z,24.51
2024-03-30T06:20:12.649Z,24.52
2024-03-30T06:21:12.644Z,24.47
2024-03-30T06:22:12.646Z,24.48
2024-03-30T06:23:12.649Z,24.48
2024-03-30T06:24:12.620Z,24.45
2024-03-30T06:25:12.665Z,24.51
2024-03-30T06:26:12.678Z,24.45
2024-03-30T06:27:12.646Z,24.44
2024-03-30T06:28:12.650Z,24.41
2024-03-30T06:29:12.668Z,24.44
2024-03-30T06:30:12.653Z,24.44
2024-03-30T06:31:12.701Z,24.40
2024-03-30T06:32:12.669Z,24.40
2024-03-30T06:33:12.658Z,24.45
2024-03-30T06:34:12.668Z,24.39
2024-03-30T06:35:12.715Z,24.36
2024-03-30T06:36:12.704Z,24.38
2024-03-30T06:37:12.649Z,24.34
2024-03-30T06:38:12.652Z,24.35
2024-03-30T06:39:12.736Z,24.34
2024-03-30T06:40:12.664Z,24.34
2024-03-30T06:41:12.682Z,24.27
2024-03-30T06:42:12.688Z,24.31
2024-03-30T06:43:12.682Z,24.29
2024-03-30T06:44:12.684Z,24.33
2024-03-30T06:45:12.657Z,24.30
2024-03-30T06:46:12.718Z,24.30
2024-03-30T06:47:12.681Z,24.28
2024-03-30T06:48:12.695Z,24.24
2024-03-30T06:49:12.698Z,24.18
2024-03-30T06:50:12.710Z,24.24
2024-03-30T06:51:12.743Z,24.14
2024-03-30T06:52:12.719Z,24.17
2024-03-30T06:53:12.709Z,24.15
2024-03-30T06:54:12.681Z,24.20
2024-03-30T06:55:12.660Z,24.13
2024-03-30T06:56:12.676Z,24.16
2024-03-30T06:57:12.767Z,24.12
2024-03-30T06:58:12.853Z,24.15
2024-03-30T06:59:12.900Z,24.17
2024-03-30T07:00:12.988Z,24.11
2024-03-30T07:01:13.053Z,24.07
2024-03-30T07:02:13.094Z,24.10
2024-03-30T07:03:13.172Z,24.09
2024-03-30T07:04:13.249Z,24.12
2024-03-30T07:05:13.363Z,24.09
2024-03-30T07:06:13.475Z,24.11
2024-03-30T07:07:15.853Z,24.06
2024-03-30T07:08:13.462Z,24.06
2024-03-30T07:09:13.495Z,24.04
2024-03-30T07:10:13.527Z,24.01
2024-03-30T07:11:13.506Z,24.07
2024-03-30T07:12:13.496Z,24.07
2024-03-30T07:13:13.618Z,24.04
2024-03-30T07:14:13.503Z,24.09
2024-03-30T07:15:13.519Z,24.05
2024-03-30T07:16:13.488Z,24.06
2024-03-30T07:17:15.029Z,24.06
2024-03-30T07:18:13.521Z,24.06
2024-03-30T07:19:13.530Z,24.13
2024-03-30T07:20:13.528Z,24.06
2024-03-30T07:21:13.526Z,24.07
2024-03-30T07:22:13.526Z,24.06
2024-03-30T07:23:13.525Z,24.07
2024-03-30T07:24:13.511Z,24.10
2024-03-30T07:25:13.542Z,24.10
2024-03-30T07:26:13.519Z,24.05
2024-03-30T07:27:13.515Z,24.06
2024-03-30T07:28:13.507Z,24.01
2024-03-30T07:29:13.525Z,24.06
2024-03-30T07:30:13.526Z,24.08
2024-03-30T07:31:13.593Z,24.06
2024-03-30T07:32:13.546Z,24.04
2024-03-30T07:33:13.506Z,24.09
2024-03-30T07:34:13.556Z,24.11
2024-03-30T07:35:13.521Z,24.08
2024-03-30T07:36:13.547Z,24.09
2024-03-30T07:37:13.568Z,24.04
2024-03-30T07:38:13.568Z,24.05
2024-03-30T07:39:13.573Z,24.00
2024-03-30T07:40:13.594Z,24.02
2024-03-30T07:41:13.609Z,24.06
2024-03-30T07:42:13.687Z,24.00
2024-03-30T07:43:13.785Z,23.99
2024-03-30T07:44:13.786Z,24.00
2024-03-30T07:45:13.894Z,24.03
2024-03-30T07:46:14.050Z,24.06
2024-03-30T07:47:14.003Z,23.98
2024-03-30T07:48:14.049Z,24.00
2024-03-30T07:49:14.130Z,23.98
2024-03-30T07:50:14.239Z,23.95
2024-03-30T07:51:14.253Z,23.89
2024-03-30T07:52:14.346Z,23.90
2024-03-30T07:53:14.408Z,23.93
2024-03-30T07:54:14.506Z,23.96
2024-03-30T07:55:14.507Z,23.88
2024-03-30T07:56:14.624Z,23.86
2024-03-30T07:57:14.689Z,23.90
2024-03-30T07:58:14.814Z,23.86
2024-03-30T07:59:37.317Z,23.84
2024-03-30T08:00:14.792Z,23.84
2024-03-30T08:01:14.788Z,23.82
2024-03-30T08:02:14.814Z,23.82
2024-03-30T08:05:47.740Z,23.75
2024-03-30T08:06:25.165Z,23.73
2024-03-30T08:07:52.379Z,23.70
2024-03-30T08:08:25.195Z,23.73
2024-03-30T08:09:52.344Z,23.70
2024-03-30T08:10:25.190Z,23.72
2024-03-30T08:11:25.778Z,23.73
2024-03-30T08:12:25.227Z,23.66
2024-03-30T08:13:25.202Z,23.66
2024-03-30T08:14:25.190Z,23.68
2024-03-30T08:15:25.208Z,23.68
2024-03-30T08:16:25.220Z,23.65
2024-03-30T08:17:25.232Z,23.72
2024-03-30T08:18:25.218Z,23.68
2024-03-30T08:19:25.238Z,23.61
2024-03-30T08:20:25.236Z,23.63
2024-03-30T08:21:25.284Z,23.67
2024-03-30T08:22:25.255Z,23.59
2024-03-30T08:23:25.208Z,23.60
2024-03-30T08:24:25.199Z,23.58
2024-03-30T08:25:25.205Z,23.58
2024-03-30T08:26:25.217Z,23.59
2024-03-30T08:27:27.659Z,23.58
2024-03-30T08:28:25.221Z,23.54
2024-03-30T08:29:25.240Z,23.55
2024-03-30T08:30:25.239Z,23.55
2024-03-30T08:31:25.214Z,23.52
2024-03-30T08:32:25.248Z,23.51
2024-03-30T08:33:25.230Z,23.47
2024-03-30T08:34:25.242Z,23.47
2024-03-30T08:35:25.254Z,23.48
2024-03-30T08:36:25.264Z,23.46
2024-03-30T08:37:25.371Z,23.44
2024-03-30T08:38:26.119Z,23.43
2024-03-30T08:39:25.512Z,23.46
2024-03-30T08:40:25.312Z,23.44
2024-03-30T08:41:25.275Z,23.41
2024-03-30T08:42:26.715Z,23.43
2024-03-30T08:43:25.350Z,23.37
2024-03-30T08:44:25.235Z,23.39
2024-03-30T08:45:25.251Z,23.39
2024-03-30T08:46:25.249Z,23.39
2024-03-30T08:47:25.254Z,23.36
2024-03-30T08:48:25.257Z,23.42
2024-03-30T08:49:25.286Z,23.38
2024-03-30T08:50:25.542Z,23.36
2024-03-30T08:51:25.302Z,23.32
2024-03-30T08:52:25.321Z,23.29
2024-03-30T08:53:25.258Z,23.30
2024-03-30T08:54:25.263Z,23.35
2024-03-30T08:55:25.276Z,23.30
2024-03-30T08:56:25.287Z,23.27
2024-03-30T08:57:25.281Z,23.32
2024-03-30T08:58:25.295Z,23.32
2024-03-30T08:59:25.301Z,23.31
2024-03-30T09:00:25.361Z,23.28
2024-03-30T09:01:25.411Z,23.30
2024-03-30T09:02:25.461Z,23.25
2024-03-30T09:03:25.549Z,23.32
2024-03-30T09:04:25.643Z,23.30
2024-03-30T09:05:25.753Z,23.36
2024-03-30T09:06:25.752Z,23.30
2024-03-30T09:07:25.806Z,23.27
2024-03-30T09:08:25.877Z,23.27
2024-03-30T09:09:26.002Z,23.28
2024-03-30T09:10:26.020Z,23.22
2024-03-30T09:11:26.100Z,23.27
2024-03-30T09:12:26.150Z,23.24
2024-03-30T09:13:26.216Z,23.27
2024-03-30T09:14:26.256Z,23.31
2024-03-30T09:15:26.334Z,23.25
2024-03-30T09:16:26.380Z,23.28
2024-03-30T09:17:26.490Z,23.24
2024-03-30T09:18:26.570Z,23.23
2024-03-30T09:19:26.562Z,23.32
2024-03-30T09:20:26.624Z,23.27
2024-03-30T09:21:26.695Z,23.26
2024-03-30T09:22:26.732Z,23.26
2024-03-30T09:23:26.788Z,23.23
2024-03-30T09:24:26.801Z,23.29
2024-03-30T09:25:26.844Z,23.21
2024-03-30T09:26:26.920Z,23.21
2024-03-30T09:27:26.970Z,23.24
2024-03-30T09:28:27.034Z,23.29
2024-03-30T09:29:28.129Z,23.23
2024-03-30T09:30:27.161Z,23.23
2024-03-30T09:31:27.180Z,23.26
2024-03-30T09:32:27.287Z,23.26
2024-03-30T09:33:27.290Z,23.28
2024-03-30T09:34:38.206Z,23.21
2024-03-30T09:35:28.361Z,23.24
2024-03-30T09:36:27.334Z,23.31
2024-03-30T09:37:27.353Z,23.23
2024-03-30T09:38:27.354Z,23.22
2024-03-30T09:39:29.067Z,23.21
2024-03-30T09:40:27.324Z,23.29
2024-03-30T09:41:27.331Z,23.26
2024-03-30T09:42:27.306Z,23.31
2024-03-30T09:43:27.349Z,23.19
2024-03-30T09:44:27.353Z,23.26
2024-03-30T09:45:27.394Z,23.31
2024-03-30T09:46:27.507Z,23.25
2024-03-30T09:47:27.550Z,23.26
2024-03-30T09:48:27.631Z,23.28
2024-03-30T09:49:27.625Z,23.25
2024-03-30T09:50:27.726Z,23.26
2024-03-30T09:51:27.844Z,23.31
2024-03-30T09:52:27.852Z,23.32
2024-03-30T09:53:27.765Z,23.34
2024-03-30T09:54:27.877Z,23.36
2024-03-30T09:55:27.908Z,23.31
2024-03-30T09:56:28.004Z,23.35
2024-03-30T09:57:27.951Z,23.34
2024-03-30T09:58:28.048Z,23.31
2024-03-30T09:59:28.052Z,23.29
2024-03-30T10:00:28.034Z,23.43
2024-03-30T10:01:28.103Z,23.40
2024-03-30T10:02:28.163Z,23.43
2024-03-30T10:03:28.196Z,23.46
2024-03-30T10:04:28.206Z,23.47
2024-03-30T10:05:36.588Z,23.44
2024-03-30T10:06:29.345Z,23.41
2024-03-30T10:07:29.251Z,23.44
2024-03-30T10:08:28.235Z,23.50
2024-03-30T10:09:29.052Z,23.50
2024-03-30T10:10:29.078Z,23.49
2024-03-30T10:11:29.069Z,23.44
2024-03-30T10:12:28.341Z,23.52
2024-03-30T10:13:28.272Z,23.53
2024-03-30T10:14:29.096Z,23.50
2024-03-30T10:15:28.416Z,23.58
2024-03-30T10:16:28.314Z,23.50
2024-03-30T10:17:28.308Z,23.52
2024-03-30T10:18:28.235Z,23.52
2024-03-30T10:19:28.205Z,23.49
2024-03-30T10:20:28.283Z,23.47
2024-03-30T10:21:28.275Z,23.52
2024-03-30T10:22:28.240Z,23.43
2024-03-30T10:23:28.235Z,23.52
2024-03-30T10:24:28.262Z,23.46
2024-03-30T10:25:28.248Z,23.39
2024-03-30T10:26:28.321Z,23.49
2024-03-30T10:27:28.259Z,23.46
2024-03-30T10:28:28.405Z,23.43
2024-03-30T10:29:28.243Z,23.48
2024-03-30T10:30:28.281Z,23.42
2024-03-30T10:31:28.297Z,23.46
2024-03-30T10:32:28.307Z,23.47
2024-03-30T10:33:28.274Z,23.49
2024-03-30T10:34:28.239Z,23.42
2024-03-30T10:35:28.251Z,23.39
2024-03-30T10:36:28.271Z,23.44
2024-03-30T10:37:28.276Z,23.42
2024-03-30T10:38:28.236Z,23.44
2024-03-30T10:39:28.398Z,23.38
2024-03-30T10:40:28.275Z,23.47
2024-03-30T10:41:28.256Z,23.46
2024-03-30T10:42:28.261Z,23.45
2024-03-30T10:43:28.284Z,23.36
2024-03-30T10:44:28.288Z,23.42
2024-03-30T10:45:28.245Z,23.42
2024-03-30T10:46:28.323Z,23.39
2024-03-30T10:47:28.407Z,23.41
2024-03-30T10:48:28.368Z,23.35
2024-03-30T10:49:28.449Z,23.44
2024-03-30T10:50:29.239Z,23.39
2024-03-30T10:51:28.550Z,23.36
2024-03-30T10:52:28.634Z,23.39
2024-03-30T10:53:28.669Z,23.35
2024-03-30T10:54:28.651Z,23.35
2024-03-30T10:55:28.762Z,23.36
2024-03-30T10:56:28.791Z,23.35
2024-03-30T10:57:28.734Z,23.30
2024-03-30T10:58:28.814Z,23.35
2024-03-30T10:59:28.850Z,23.33
2024-03-30T11:00:28.936Z,23.36
2024-03-30T11:01:28.974Z,23.33
2024-03-30T11:02:29.097Z,23.30
2024-03-30T11:03:29.088Z,23.32
2024-03-30T11:04:29.161Z,23.32
2024-03-30T11:05:29.165Z,23.30
2024-03-30T11:06:29.187Z,23.30
2024-03-30T11:07:29.214Z,23.33
2024-03-30T11:08:29.301Z,23.33
2024-03-30T11:09:29.335Z,23.29
2024-03-30T11:10:29.412Z,23.32
2024-03-30T11:11:29.486Z,23.35
2024-03-30T11:12:29.468Z,23.29
2024-03-30T11:13:29.459Z,23.29
2024-03-30T11:14:29.570Z,23.21
2024-03-30T11:15:29.638Z,23.26
2024-03-30T11:16:29.640Z,23.29
2024-03-30T11:17:29.701Z,23.26
2024-03-30T11:18:29.762Z,23.27
2024-03-30T11:19:29.812Z,23.24
2024-03-30T11:20:29.817Z,23.27
2024-03-30T11:21:29.910Z,23.23
2024-03-30T11:22:29.945Z,23.29
2024-03-30T11:23:30.045Z,23.21
2024-03-30T11:24:30.023Z,23.21
2024-03-30T11:25:30.219Z,23.23
2024-03-30T11:26:30.115Z,23.21
2024-03-30T11:27:30.127Z,23.18
2024-03-30T11:28:30.233Z,23.23
2024-03-30T11:29:30.241Z,23.15
2024-03-30T11:30:39.690Z,23.18
2024-03-30T11:31:31.328Z,23.21
2024-03-30T11:32:30.454Z,23.18
2024-03-30T11:33:30.418Z,23.12
2024-03-30T11:34:30.314Z,23.18
2024-03-30T11:35:30.281Z,23.17
2024-03-30T11:36:30.340Z,23.20
2024-03-30T11:37:30.301Z,23.12
2024-03-30T11:38:36.756Z,23.15
2024-03-30T11:39:31.379Z,23.15
2024-03-30T11:40:30.325Z,23.21
2024-03-30T11:41:30.532Z,23.18
2024-03-30T11:42:30.326Z,23.18
2024-03-30T11:43:30.279Z,23.14
2024-03-30T11:44:30.354Z,23.15
2024-03-30T11:45:30.367Z,23.14
2024-03-30T11:46:30.481Z,23.23
2024-03-30T11:47:30.401Z,23.14
2024-03-30T11:48:30.420Z,23.15
2024-03-30T11:49:30.426Z,23.20
2024-03-30T11:50:30.611Z,23.12
2024-03-30T11:51:30.682Z,23.17
2024-03-30T11:52:30.556Z,23.17
2024-03-30T11:53:30.653Z,23.20
2024-03-30T11:54:30.666Z,23.12
2024-03-30T11:55:30.746Z,23.17
2024-03-30T11:56:30.883Z,23.09
2024-03-30T11:57:30.924Z,23.17
2024-03-30T11:58:30.899Z,23.12
2024-03-30T11:59:30.990Z,23.09
2024-03-30T12:00:30.962Z,23.11
2024-03-30T12:01:31.022Z,23.05
2024-03-30T12:02:31.080Z,23.14
2024-03-30T12:03:31.145Z,23.11
2024-03-30T12:04:31.141Z,23.09
2024-03-30T12:05:31.199Z,23.03
2024-03-30T12:06:31.256Z,23.08
2024-03-30T12:07:31.373Z,23.09
2024-03-30T12:08:31.455Z,23.08
2024-03-30T12:09:31.438Z,23.05
2024-03-30T12:10:31.457Z,23.05
2024-03-30T12:11:31.553Z,23.03
2024-03-30T12:12:31.572Z,23.08
2024-03-30T12:13:31.686Z,23.02
2024-03-30T12:14:31.811Z,23.02
2024-03-30T12:15:31.741Z,23.03
2024-03-30T12:16:31.813Z,22.99
2024-03-30T12:17:31.846Z,23.05
2024-03-30T12:18:31.917Z,22.99
2024-03-30T12:19:32.633Z,22.99
2024-03-30T12:20:31.931Z,23.03
2024-03-30T12:21:31.981Z,22.99
2024-03-30T12:22:32.072Z,22.99
2024-03-30T12:23:32.056Z,22.97
2024-03-30T12:24:32.100Z,22.93
2024-03-30T12:25:32.173Z,22.97
2024-03-30T12:26:32.173Z,23.01
2024-03-30T12:27:32.223Z,22.97
2024-03-30T12:28:32.290Z,22.94
2024-03-30T12:29:39.379Z,22.90
2024-03-30T12:30:33.328Z,22.99
2024-03-30T12:31:32.303Z,22.93
2024-03-30T12:32:32.383Z,22.94
2024-03-30T12:33:32.370Z,22.93
2024-03-30T12:34:32.338Z,22.94
2024-03-30T12:35:32.364Z,22.94
2024-03-30T12:36:32.334Z,23.00
2024-03-30T12:37:32.342Z,22.90
2024-03-30T12:38:32.348Z,22.91
2024-03-30T12:39:32.364Z,22.92
2024-03-30T12:40:32.406Z,22.93
2024-03-30T12:41:32.377Z,22.93
2024-03-30T12:42:32.487Z,22.95
2024-03-30T12:43:32.500Z,22.92
2024-03-30T12:44:32.550Z,22.94
2024-03-30T12:45:32.552Z,22.94
2024-03-30T12:46:32.670Z,22.91
2024-03-30T12:47:32.722Z,22.92
2024-03-30T12:48:32.670Z,22.93
2024-03-30T12:49:32.729Z,22.93
2024-03-30T12:50:32.800Z,22.90
2024-03-30T12:51:32.801Z,22.87
2024-03-30T12:52:32.852Z,22.89
2024-03-30T12:53:32.913Z,22.93
2024-03-30T12:54:33.027Z,22.86
2024-03-30T12:55:32.987Z,22.90
2024-03-30T12:56:33.091Z,22.93